Time;durP1;ratioP1;P1;durP2;ratioP2;P2;SDS_P1;SDS_P2;PMS_P1;PMS_P2;Temp;Humidity;BMP_temperature;BMP_pressure;BME280_temperature;BME280_humidity;BME280_pressure;Samples;Min_cycle;Max_cycle;Signal;HPM_P1;HPM_P2
2021/10/27 00:02:25;;;;;;;;;;;;;;;11.13;93.49;100758.55;1717280;82;20204;-81
2021/10/27 00:04:53;;;;;;;;;;;;;;;11.12;93.49;100761.34;1732916;81;20137;-80
2021/10/27 00:07:21;;;;;;;;;;;;;;;11.17;93.28;100756.95;1730757;82;20162;-80
2021/10/27 00:09:47;;;;;;;;;;;;;;;11.13;93.45;100757.23;1737253;82;20150;-80
2021/10/27 00:12:15;;;;;;;;;;;;;;;11.17;93.34;100756.95;1745011;82;21252;-80
2021/10/27 00:14:44;;;;;;;;;;;;;;;11.18;93.24;100758.13;1738006;82;20146;-80
2021/10/27 00:17:11;;;;;;;;;;;;;;;11.21;93.09;100757.01;1720671;82;20138;-79
2021/10/27 00:19:37;;;;;;;;;;;;;;;11.17;93.41;100762.23;1737090;81;20193;-79
2021/10/27 00:22:06;;;;;;;;;;;;;;;11.20;92.91;100753.55;1740268;82;20257;-81
2021/10/27 00:24:34;;;;;;;;;;;;;;;11.20;92.97;100746.94;1738157;81;21402;-81
2021/10/27 00:27:00;;;;;;;;;;;;;;;11.18;93.03;100758.63;1734664;82;20948;-81
2021/10/27 00:29:25;;;;;;;;;;;;;;;11.21;92.82;100764.94;1712259;82;20150;-80
2021/10/27 00:31:54;;;;;;;;;;;;;;;11.24;92.70;100762.01;1716546;82;20150;-81
2021/10/27 00:34:22;;;;;;;;;;;;;;;11.28;92.57;100766.03;1745775;82;20253;-81
2021/10/27 00:36:47;;;;;;;;;;;;;;;11.30;92.33;100762.25;1734365;81;21890;-81
2021/10/27 00:39:15;;;;;;;;;;;;;;;11.32;92.17;100760.28;1730577;82;20175;-80
2021/10/27 00:41:44;;;;;;;;;;;;;;;11.21;92.51;100759.66;1741150;82;20192;-81
2021/10/27 00:44:26;;;;;;;;;;;;;;;11.23;92.50;100763.83;1719854;82;20146;-80
2021/10/27 00:47:02;;;;;;;;;;;;;;;11.27;92.55;100763.03;1739478;81;20515;-80
2021/10/27 00:49:29;;;;;;;;;;;;;;;11.23;92.63;100766.47;1741233;82;21125;-81
2021/10/27 00:51:56;;;;;;;;;;;;;;;11.03;93.76;100772.78;1736865;81;20206;-80
2021/10/27 00:54:23;;;;;;;;;;;;;;;11.05;93.76;100767.70;1739743;81;20218;-80
2021/10/27 00:56:51;;;;;;;;;;;;;;;11.03;93.87;100764.38;1730966;82;20174;-80
2021/10/27 00:59:18;;;;;;;;;;;;;;;11.04;93.95;100764.70;1734113;82;20202;-81
2021/10/27 01:01:45;;;;;;;;;;;;;;;11.08;93.70;100766.09;1728131;82;20593;-81
2021/10/27 01:04:11;;;;;;;;;;;;;;;11.09;93.43;100763.81;1725173;82;20323;-80
2021/10/27 01:06:37;;;;;;;;;;;;;;;11.06;93.90;100770.70;1701775;82;20224;-82
2021/10/27 01:09:05;;;;;;;;;;;;;;;11.07;93.42;100767.06;1727106;82;20212;-80
2021/10/27 01:11:31;;;;;;;;;;;;;;;11.01;93.84;100762.35;1719476;82;20198;-80
2021/10/27 01:13:58;;;;;;;;;;;;;;;10.97;94.07;100763.64;1725528;82;21084;-80
2021/10/27 01:16:27;;;;;;;;;;;;;;;10.94;93.94;100767.89;1704830;82;20314;-81
2021/10/27 01:18:55;;;;;;;;;;;;;;;11.02;93.85;100761.38;1722217;82;20119;-81
2021/10/27 01:21:21;;;;;;;;;;;;;;;10.93;94.00;100757.78;1705336;82;20635;-80
2021/10/27 01:23:47;;;;;;;;;;;;;;;11.11;93.27;100754.41;1726635;82;20206;-81
2021/10/27 01:26:13;;;;;;;;;;;;;;;11.12;92.98;100760.88;1709378;82;20859;-81
2021/10/27 01:28:42;;;;;;;;;;;;;;;11.02;93.27;100760.56;1730900;81;20216;-81
2021/10/27 01:31:09;;;;;;;;;;;;;;;11.06;93.25;100757.48;1714780;82;20183;-80
2021/10/27 01:33:34;;;;;;;;;;;;;;;11.09;92.85;100769.09;1731356;81;20214;-81
2021/10/27 01:36:02;;;;;;;;;;;;;;;10.96;93.33;100763.28;1727169;82;20261;-80
2021/10/27 01:38:28;;;;;;;;;;;;;;;10.83;93.97;100766.71;1717097;82;20111;-81
2021/10/27 01:40:53;;;;;;;;;;;;;;;10.79;94.26;100771.45;1724796;82;20166;-81
2021/10/27 01:43:23;;;;;;;;;;;;;;;10.74;95.01;100779.80;1699428;82;20622;-81
2021/10/27 01:45:48;;;;;;;;;;;;;;;10.84;94.59;100781.59;1720922;82;20734;-78
2021/10/27 01:48:16;;;;;;;;;;;;;;;10.91;94.06;100785.34;1721244;81;20235;-79
2021/10/27 01:50:43;;;;;;;;;;;;;;;10.90;93.73;100786.31;1737199;82;21086;-80
2021/10/27 01:53:13;;;;;;;;;;;;;;;10.86;93.92;100784.92;1731820;82;20336;-79
2021/10/27 01:55:40;;;;;;;;;;;;;;;10.95;93.45;100784.06;1725350;82;20238;-80
2021/10/27 01:58:08;;;;;;;;;;;;;;;10.92;93.79;100785.20;1720804;82;20333;-79
2021/10/27 02:00:35;;;;;;;;;;;;;;;10.80;93.94;100790.77;1711101;82;20218;-79
2021/10/27 02:03:04;;;;;;;;;;;;;;;10.79;93.91;100788.63;1739437;82;21129;-79
2021/10/27 02:05:40;;;;;;;;;;;;;;;10.74;94.10;100793.02;1738181;81;20459;-79
2021/10/27 02:08:06;;;;;;;;;;;;;;;10.62;94.80;100786.22;1740364;82;20153;-80
2021/10/27 02:10:31;;;;;;;;;;;;;;;10.64;94.83;100790.86;1738700;82;20162;-81
2021/10/27 02:13:01;;;;;;;;;;;;;;;10.55;95.32;100790.38;1710593;81;20185;-81
2021/10/27 02:15:29;;;;;;;;;;;;;;;10.58;94.83;100785.67;1736313;82;21089;-80
2021/10/27 02:17:56;;;;;;;;;;;;;;;10.41;95.85;100790.34;1736850;82;20185;-80
2021/10/27 02:20:22;;;;;;;;;;;;;;;10.31;96.61;100790.29;1735705;82;20858;-80
2021/10/27 02:22:50;;;;;;;;;;;;;;;10.23;97.14;100794.12;1709665;82;20451;-81
2021/10/27 02:25:19;;;;;;;;;;;;;;;10.26;97.09;100795.16;1738769;82;20316;-79
2021/10/27 02:27:45;;;;;;;;;;;;;;;10.16;97.99;100800.91;1738456;82;20183;-80
2021/10/27 02:30:12;;;;;;;;;;;;;;;10.27;97.29;100795.52;1737756;81;20360;-80
2021/10/27 02:32:41;;;;;;;;;;;;;;;10.34;97.06;100791.37;1736861;81;20210;-79
2021/10/27 02:35:13;;;;;;;;;;;;;;;10.33;96.92;100794.14;1737400;82;20130;-81
2021/10/27 02:37:39;;;;;;;;;;;;;;;10.43;96.46;100794.99;1710927;82;20207;-80
2021/10/27 02:40:08;;;;;;;;;;;;;;;10.44;96.66;100793.17;1739763;82;21309;-81
2021/10/27 02:42:36;;;;;;;;;;;;;;;10.46;96.38;100793.89;1706995;82;20158;-81
2021/10/27 02:45:02;;;;;;;;;;;;;;;10.29;97.22;100800.17;1734617;82;20126;-81
2021/10/27 02:47:28;;;;;;;;;;;;;;;10.34;97.01;100796.65;1735601;82;20606;-81
2021/10/27 02:49:55;;;;;;;;;;;;;;;10.38;96.93;100791.94;1736952;82;20150;-81
2021/10/27 02:52:22;;;;;;;;;;;;;;;10.40;96.58;100798.73;1737274;81;20946;-81
2021/10/27 02:54:49;;;;;;;;;;;;;;;10.41;96.32;100799.59;1739704;82;20165;-80
2021/10/27 02:57:15;;;;;;;;;;;;;;;10.27;97.00;100790.24;1737692;82;20138;-81
2021/10/27 02:59:40;;;;;;;;;;;;;;;10.24;97.26;100789.20;1708006;81;20602;-81
2021/10/27 03:02:09;;;;;;;;;;;;;;;10.23;96.96;100794.12;1738874;81;20150;-81
2021/10/27 03:04:34;;;;;;;;;;;;;;;10.33;96.58;100796.78;1737607;82;21898;-81
2021/10/27 03:07:02;;;;;;;;;;;;;;;10.35;96.14;100791.73;1736885;82;20152;-81
2021/10/27 03:09:29;;;;;;;;;;;;;;;10.41;95.94;100799.59;1741911;82;20134;-82
2021/10/27 03:11:54;;;;;;;;;;;;;;;10.45;95.59;100805.41;1712551;82;20406;-80
2021/10/27 03:14:25;;;;;;;;;;;;;;;10.38;95.58;100806.47;1739104;82;20164;-81
2021/10/27 03:16:53;;;;;;;;;;;;;;;10.25;96.16;100813.28;1726860;82;22157;-80
2021/10/27 03:19:21;;;;;;;;;;;;;;;10.12;97.07;100810.91;1711017;82;20613;-79
2021/10/27 03:21:48;;;;;;;;;;;;;;;10.17;96.77;100813.14;1738078;82;20208;-81
2021/10/27 03:24:16;;;;;;;;;;;;;;;10.05;97.18;100813.27;1736882;82;20175;-80
2021/10/27 03:26:41;;;;;;;;;;;;;;;10.08;97.31;100823.20;1733702;82;20312;-81
2021/10/27 03:29:07;;;;;;;;;;;;;;;9.95;97.74;100817.69;1736841;82;21344;-80
2021/10/27 03:31:35;;;;;;;;;;;;;;;9.84;98.47;100820.45;1740377;82;20282;-80
2021/10/27 03:34:01;;;;;;;;;;;;;;;9.90;98.37;100819.91;1739559;82;20178;-80
2021/10/27 03:36:30;;;;;;;;;;;;;;;9.89;98.34;100816.91;1739783;82;20224;-80
2021/10/27 03:38:57;;;;;;;;;;;;;;;9.87;98.36;100825.45;1738099;81;20136;-81
2021/10/27 03:41:23;;;;;;;;;;;;;;;9.82;98.64;100821.90;1738200;81;21019;-80
2021/10/27 03:43:48;;;;;;;;;;;;;;;9.68;99.10;100823.10;1737772;82;20174;-80
2021/10/27 03:46:17;;;;;;;;;;;;;;;9.65;99.83;100822.05;1741217;82;21080;-80
2021/10/27 03:48:42;;;;;;;;;;;;;;;9.60;99.91;100820.31;1733524;82;20252;-79
2021/10/27 03:51:11;;;;;;;;;;;;;;;9.52;100.00;100826.70;1738359;81;20250;-81
2021/10/27 03:53:36;;;;;;;;;;;;;;;9.53;100.00;100821.80;1737271;81;20919;-80
2021/10/27 03:56:04;;;;;;;;;;;;;;;9.70;99.74;100822.48;1738542;82;20185;-81
2021/10/27 03:58:33;;;;;;;;;;;;;;;9.68;99.69;100824.42;1737266;82;20158;-81
2021/10/27 04:00:59;;;;;;;;;;;;;;;9.80;98.77;100824.31;1738692;82;20748;-80
2021/10/27 04:03:28;;;;;;;;;;;;;;;9.54;99.73;100832.70;1735962;82;20203;-81
2021/10/27 04:05:56;;;;;;;;;;;;;;;9.50;99.99;100832.11;1711442;82;20157;-81
2021/10/27 04:08:23;;;;;;;;;;;;;;;9.45;100.00;100828.22;1738756;82;20134;-79
2021/10/27 04:10:49;;;;;;;;;;;;;;;9.40;100.00;100830.40;1735053;82;20160;-81
2021/10/27 04:13:16;;;;;;;;;;;;;;;9.35;100.00;100833.42;1712619;82;20639;-79
2021/10/27 04:15:42;;;;;;;;;;;;;;;9.44;100.00;100832.64;1712844;82;20170;-81
2021/10/27 04:18:11;;;;;;;;;;;;;;;9.36;100.00;100831.16;1738735;82;21104;-80
2021/10/27 04:20:37;;;;;;;;;;;;;;;9.22;100.00;100827.06;1733820;82;21068;-82
2021/10/27 04:23:05;;;;;;;;;;;;;;;9.13;100.00;100831.80;1732138;82;20139;-80
2021/10/27 04:25:33;;;;;;;;;;;;;;;9.07;100.00;100833.14;1738737;82;20162;-80
2021/10/27 04:27:59;;;;;;;;;;;;;;;9.09;100.00;100838.28;1740622;82;20162;-82
2021/10/27 04:30:24;;;;;;;;;;;;;;;9.16;100.00;100834.17;1694292;82;21034;-82
2021/10/27 04:32:54;;;;;;;;;;;;;;;9.13;100.00;100835.75;1737216;81;20150;-82
2021/10/27 04:35:21;;;;;;;;;;;;;;;9.27;100.00;100835.89;1738938;81;20187;-79
2021/10/27 04:37:50;;;;;;;;;;;;;;;9.26;100.00;100837.70;1739803;81;20334;-81
2021/10/27 04:40:20;;;;;;;;;;;;;;;9.28;100.00;100841.03;1740891;82;20215;-82
2021/10/27 04:42:48;;;;;;;;;;;;;;;9.26;99.84;100833.75;1741651;82;20674;-81
2021/10/27 04:45:17;;;;;;;;;;;;;;;9.25;99.88;100838.66;1735941;82;20178;-80
2021/10/27 04:47:45;;;;;;;;;;;;;;;9.20;100.00;100842.17;1739203;82;20118;-82
2021/10/27 04:50:11;;;;;;;;;;;;;;;9.26;99.69;100842.12;1736506;81;20968;-80
2021/10/27 04:52:37;;;;;;;;;;;;;;;9.09;100.00;100844.41;1737021;81;20154;-81
2021/10/27 04:55:05;;;;;;;;;;;;;;;8.96;100.00;100841.12;1734838;82;21098;-81
2021/10/27 04:57:35;;;;;;;;;;;;;;;8.92;100.00;100845.81;1740481;82;20122;-82
2021/10/27 05:00:01;;;;;;;;;;;;;;;8.83;100.00;100841.31;1738089;82;20619;-80
2021/10/27 05:02:30;;;;;;;;;;;;;;;8.65;100.00;100842.84;1732376;82;20154;-81
2021/10/27 05:04:57;;;;;;;;;;;;;;;8.69;100.00;100849.53;1709851;82;20291;-82
2021/10/27 05:07:29;;;;;;;;;;;;;;;8.61;100.00;100853.62;1739014;82;20207;-81
2021/10/27 05:10:02;;;;;;;;;;;;;;;8.58;100.00;100854.36;1734760;82;20138;-82
2021/10/27 05:12:32;;;;;;;;;;;;;;;8.42;100.00;100854.27;1736636;82;20158;-82
2021/10/27 05:15:06;;;;;;;;;;;;;;;8.42;100.00;100853.41;1740201;82;20130;-82
2021/10/27 05:17:35;;;;;;;;;;;;;;;8.46;100.00;100846.97;1737246;81;20123;-84
2021/10/27 05:20:06;;;;;;;;;;;;;;;8.50;100.00;100852.36;1709039;81;22008;-83
2021/10/27 05:22:34;;;;;;;;;;;;;;;8.56;100.00;100852.31;1736273;82;20218;-83
2021/10/27 05:25:01;;;;;;;;;;;;;;;8.51;100.00;100843.48;1713036;82;20217;-83
2021/10/27 05:27:30;;;;;;;;;;;;;;;8.51;100.00;100841.33;1736710;82;20291;-83
2021/10/27 05:29:57;;;;;;;;;;;;;;;8.59;100.00;100848.11;1712847;82;20202;-86
2021/10/27 05:32:24;;;;;;;;;;;;;;;8.48;100.00;100852.94;1737203;82;21159;-83
2021/10/27 05:34:51;;;;;;;;;;;;;;;8.38;100.00;100848.06;1739449;81;20166;-83
2021/10/27 05:37:17;;;;;;;;;;;;;;;8.27;100.00;100852.38;1738807;81;20230;-83
2021/10/27 05:39:43;;;;;;;;;;;;;;;8.29;100.00;100847.48;1742114;81;20178;-81
2021/10/27 05:42:20;;;;;;;;;;;;;;;8.31;100.00;100856.08;1742092;81;20576;-84
2021/10/27 05:44:47;;;;;;;;;;;;;;;8.29;100.00;100861.95;1740765;81;20320;-84
2021/10/27 05:47:15;;;;;;;;;;;;;;;8.27;100.00;100866.85;1740501;81;20206;-82
2021/10/27 05:49:54;;;;;;;;;;;;;;;8.27;100.00;100863.40;1738234;81;20240;-81
2021/10/27 05:57:35;;;;;;;;;;;;;;;8.37;100.00;100863.48;1736369;82;20258;-84
2021/10/27 05:59:58;;;;;;;;;;;;;;;8.36;100.00;100865.75;1738330;81;20196;-83
2021/10/27 06:02:24;;;;;;;;;;;;;;;8.44;100.00;100867.33;1744444;82;20496;-80
2021/10/27 06:04:51;;;;;;;;;;;;;;;8.52;100.00;100875.44;1745025;82;20133;-80
2021/10/27 06:07:20;;;;;;;;;;;;;;;8.57;100.00;100873.25;1720598;82;20178;-80
2021/10/27 06:09:48;;;;;;;;;;;;;;;8.56;100.00;100876.86;1741283;82;21105;-80
2021/10/27 06:12:16;;;;;;;;;;;;;;;8.79;100.00;100879.39;1745725;80;20161;-79
2021/10/27 06:14:41;;;;;;;;;;;;;;;8.83;100.00;100882.62;1742748;82;20306;-79
2021/10/27 06:17:13;;;;;;;;;;;;;;;8.88;100.00;100880.44;1741613;82;20146;-81
2021/10/27 06:19:39;;;;;;;;;;;;;;;8.92;99.62;100888.45;1739330;82;20205;-81
2021/10/27 06:22:09;;;;;;;;;;;;;;;8.86;99.97;100892.42;1738262;82;21141;-80
2021/10/27 06:24:35;;;;;;;;;;;;;;;8.94;99.63;100892.61;1738579;82;20870;-80
2021/10/27 06:27:03;;;;;;;;;;;;;;;8.96;99.32;100894.66;1743685;81;20205;-80
2021/10/27 06:29:33;;;;;;;;;;;;;;;8.94;99.20;100903.14;1717518;82;20861;-80
2021/10/27 06:32:10;;;;;;;;;;;;;;;8.94;99.13;100900.52;1739358;82;20130;-80
2021/10/27 06:34:33;;;;;;;;;;;;;;;9.04;99.28;100906.34;1741245;82;20514;-80
2021/10/27 06:37:08;;;;;;;;;;;;;;;9.07;99.28;100904.27;1742192;82;21828;-80
2021/10/27 06:47:44;;;;;;;;;;;;;;;9.28;98.51;100901.66;1743169;82;20946;-77
2021/10/27 06:50:10;;;;;;;;;;;;;;;9.32;98.53;100910.98;1741036;81;20166;-78
2021/10/27 06:52:39;;;;;;;;;;;;;;;9.41;98.11;100911.16;1744249;81;20585;-78
2021/10/27 06:55:06;;;;;;;;;;;;;;;9.46;97.75;100920.83;1742646;82;20612;-79
2021/10/27 06:57:34;;;;;;;;;;;;;;;9.42;97.67;100921.58;1742931;81;20520;-79
2021/10/27 07:00:10;;;;;;;;;;;;;;;9.53;97.66;100924.13;1744975;82;21198;-82
2021/10/27 07:16:04;;;;;;;;;;;;;;;9.42;98.55;100931.30;1737945;82;20306;-81
2021/10/27 07:18:31;;;;;;;;;;;;;;;9.49;98.40;100929.80;1737142;82;20601;-81
2021/10/27 07:20:56;;;;;;;;;;;;;;;9.51;98.02;100935.80;1735159;82;20535;-80
2021/10/27 07:23:22;;;;;;;;;;;;;;;9.79;97.64;100929.45;1738801;82;20190;-82
2021/10/27 07:25:56;;;;;;;;;;;;;;;9.89;96.43;100922.44;1738134;82;21912;-82
2021/10/27 07:28:19;;;;;;;;;;;;;;;9.83;96.80;100928.23;1736736;82;20322;-83
2021/10/27 07:30:46;;;;;;;;;;;;;;;9.93;96.47;100926.48;1737163;82;20300;-81
2021/10/27 07:33:12;;;;;;;;;;;;;;;10.05;96.12;100920.15;1736758;82;20157;-83
2021/10/27 07:40:54;;;;;;;;;;;;;;;10.22;95.40;100933.66;1698047;84;20234;-81
2021/10/27 07:43:27;;;;;;;;;;;;;;;10.34;94.36;100923.38;1712476;82;20179;-80
2021/10/27 07:45:53;;;;;;;;;;;;;;;10.50;93.67;100935.22;1726174;82;20449;-81
2021/10/27 07:48:18;;;;;;;;;;;;;;;10.40;93.75;100937.34;1730227;82;20175;-80
2021/10/27 07:50:44;;;;;;;;;;;;;;;10.39;93.44;100937.02;1728020;83;21101;-81
2021/10/27 07:53:11;;;;;;;;;;;;;;;10.36;93.65;100937.30;1724852;82;20266;-81
2021/10/27 07:55:43;;;;;;;;;;;;;;;10.53;93.40;100932.30;1725476;83;20147;-80
2021/10/27 07:58:14;;;;;;;;;;;;;;;10.62;93.20;100936.77;1723734;82;20154;-81
2021/10/27 08:00:40;;;;;;;;;;;;;;;10.71;92.51;100939.91;1723774;83;20624;-82
2021/10/27 08:03:05;;;;;;;;;;;;;;;10.71;92.70;100933.30;1715758;83;21111;-81
2021/10/27 08:05:38;;;;;;;;;;;;;;;10.80;92.29;100933.44;1690539;83;20220;-80
2021/10/27 08:08:05;;;;;;;;;;;;;;;10.87;92.29;100926.14;1717129;83;20103;-82
2021/10/27 08:10:32;;;;;;;;;;;;;;;10.95;92.03;100930.27;1694152;83;20135;-81
2021/10/27 08:12:59;;;;;;;;;;;;;;;11.08;91.97;100935.76;1716146;83;20171;-83
2021/10/27 08:15:26;;;;;;;;;;;;;;;11.02;91.70;100944.25;1710492;82;21184;-82
2021/10/27 08:17:53;;;;;;;;;;;;;;;11.12;91.74;100947.23;1693304;83;21239;-83
2021/10/27 08:20:23;;;;;;;;;;;;;;;11.16;91.83;100953.56;1711487;82;20176;-81
2021/10/27 08:22:55;;;;;;;;;;;;;;;11.07;92.49;100946.80;1694687;83;20193;-80
2021/10/27 08:25:28;;;;;;;;;;;;;;;11.27;92.06;100945.47;1714564;83;21008;-83
2021/10/27 08:27:50;;;;;;;;;;;;;;;11.42;91.04;100947.17;1715814;83;20138;-83
2021/10/27 08:30:18;;;;;;;;;;;;;;;11.55;90.72;100952.18;1702233;83;20203;-82
2021/10/27 08:32:54;;;;;;;;;;;;;;;11.42;90.35;100936.13;1704402;83;20340;-83
2021/10/27 08:35:18;;;;;;;;;;;;;;;11.50;90.35;100944.17;1705579;83;20218;-82
2021/10/27 08:37:46;;;;;;;;;;;;;;;11.40;90.39;100947.31;1713939;83;20401;-84
2021/10/27 08:40:15;;;;;;;;;;;;;;;11.39;90.47;100939.52;1718579;83;21152;-83
2021/10/27 08:42:43;;;;;;;;;;;;;;;11.46;89.92;100946.75;1693855;83;20552;-84
2021/10/27 08:45:09;;;;;;;;;;;;;;;11.59;89.43;100942.96;1710792;82;20311;-83
2021/10/27 08:47:39;;;;;;;;;;;;;;;11.60;89.20;100945.47;1715899;83;20175;-84
2021/10/27 08:50:08;;;;;;;;;;;;;;;11.59;88.97;100953.55;1718800;82;20975;-81
2021/10/27 08:52:36;;;;;;;;;;;;;;;11.72;88.74;100955.91;1718069;83;21319;-83
2021/10/27 08:55:05;;;;;;;;;;;;;;;11.77;87.32;100952.33;1720129;82;20505;-84
2021/10/27 08:57:32;;;;;;;;;;;;;;;11.72;87.37;100958.55;1713762;82;20159;-84
2021/10/27 09:00:06;;;;;;;;;;;;;;;11.86;87.39;100958.08;1693691;83;20522;-81
2021/10/27 09:05:20;;;;;;;;;;;;;;;11.75;86.54;100953.79;1713554;83;20582;-82
2021/10/27 09:07:58;;;;;;;;;;;;;;;12.12;85.89;100949.02;1710336;83;20515;-82
2021/10/27 09:35:19;;;;;;;;;;;;;;;13.06;80.27;100924.47;1713451;83;20147;-83
2021/10/27 09:37:58;;;;;;;;;;;;;;;13.16;79.30;100925.22;1710668;83;20555;-84
2021/10/27 09:43:27;;;;;;;;;;;;;;;13.23;79.16;100919.62;1711320;83;20316;-83
2021/10/27 10:05:10;;;;;;;;;;;;;;;14.08;76.53;100928.27;1711048;83;20266;-81
2021/10/27 10:07:36;;;;;;;;;;;;;;;14.18;76.04;100922.81;1710371;82;20196;-83
2021/10/27 10:10:03;;;;;;;;;;;;;;;14.31;75.88;100927.19;1721976;83;20164;-83
2021/10/27 10:12:38;;;;;;;;;;;;;;;14.43;75.17;100922.89;1706567;83;22357;-83
2021/10/27 10:15:06;;;;;;;;;;;;;;;14.58;74.29;100931.08;1714575;83;20208;-83
2021/10/27 10:17:34;;;;;;;;;;;;;;;14.52;73.95;100924.58;1686565;83;33272;-82
2021/10/27 10:20:01;;;;;;;;;;;;;;;14.66;73.25;100926.62;1689061;83;20222;-82
2021/10/27 10:22:37;;;;;;;;;;;;;;;14.66;72.57;100922.63;1716033;82;20219;-83
2021/10/27 10:25:25;;;;;;;;;;;;;;;14.83;72.13;100925.33;1718276;83;22517;-83
2021/10/27 10:27:56;;;;;;;;;;;;;;;14.97;71.86;100923.33;1721993;82;20134;-84
2021/10/27 10:30:38;;;;;;;;;;;;;;;14.89;71.30;100920.67;1702079;83;20598;-82
2021/10/27 10:33:07;;;;;;;;;;;;;;;14.81;71.46;100923.34;1713049;83;20183;-84
2021/10/27 10:38:28;;;;;;;;;;;;;;;14.74;70.91;100910.36;1706417;83;20135;-84
2021/10/27 10:41:16;;;;;;;;;;;;;;;14.92;70.90;100916.86;1708000;83;20131;-84
2021/10/27 10:57:41;;;;;;;;;;;;;;;14.85;70.96;100911.36;1694158;83;20127;-84
2021/10/27 11:03:28;;;;;;;;;;;;;;;14.83;70.46;100909.37;1716423;82;20134;-85
2021/10/27 11:22:27;;;;;;;;;;;;;;;15.32;68.95;100894.72;1720821;83;20149;-83
2021/10/27 11:23:00;;;;;;;;;;;;;;;15.41;68.54;100900.36;1699120;83;20266;-83
2021/10/27 11:25:28;;;;;;;;;;;;;;;15.45;68.33;100891.53;1722866;82;20131;-84
2021/10/27 11:41:57;;;;;;;;;;;;;;;15.79;67.23;100903.27;1724686;83;20154;-83
2021/10/27 11:44:33;;;;;;;;;;;;;;;15.64;67.73;100904.95;1721517;82;20123;-83
2021/10/27 11:47:03;;;;;;;;;;;;;;;15.63;67.72;100895.32;1721255;82;21143;-84
2021/10/27 11:49:36;;;;;;;;;;;;;;;15.65;67.36;100894.64;1722130;82;20313;-84
2021/10/27 11:51:56;;;;;;;;;;;;;;;15.66;67.34;100883.47;1727006;83;20159;-85
2021/10/27 11:54:25;;;;;;;;;;;;;;;15.74;67.31;100882.95;1721262;82;20133;-84
2021/10/27 11:56:51;;;;;;;;;;;;;;;15.71;67.02;100890.47;1723745;82;20181;-87
2021/10/27 11:59:18;;;;;;;;;;;;;;;15.70;67.42;100897.61;1724259;82;20687;-91
2021/10/27 12:01:53;;;;;;;;;;;;;;;15.83;67.15;100885.61;1725132;83;20143;-88
2021/10/27 12:04:20;;;;;;;;;;;;;;;15.81;66.97;100890.30;1716937;82;20225;-87
2021/10/27 12:09:43;;;;;;;;;;;;;;;15.74;66.77;100890.95;1708974;82;20604;-89
2021/10/27 12:17:59;;;;;;;;;;;;;;;15.63;66.38;100883.34;1709256;82;20644;-85
2021/10/27 12:20:39;;;;;;;;;;;;;;;15.68;65.95;100890.81;1710811;82;20161;-91
2021/10/27 12:23:06;;;;;;;;;;;;;;;15.68;66.12;100890.81;1706745;82;20225;-90
2021/10/27 12:25:32;;;;;;;;;;;;;;;15.65;66.33;100879.17;1710827;82;21185;-85
2021/10/27 12:28:06;;;;;;;;;;;;;;;15.65;66.48;100879.99;1708257;82;20873;-84
2021/10/27 12:30:36;;;;;;;;;;;;;;;15.65;66.85;100880.50;1705313;82;20245;-82
2021/10/27 12:33:04;;;;;;;;;;;;;;;15.54;67.37;100881.70;1715681;82;20557;-83
2021/10/27 12:35:29;;;;;;;;;;;;;;;15.53;67.33;100877.37;1706575;82;20173;-82
2021/10/27 12:38:20;;;;;;;;;;;;;;;15.32;67.70;100889.40;1708621;82;21192;-82
2021/10/27 12:40:46;;;;;;;;;;;;;;;15.44;67.71;100881.39;1704677;82;20205;-82
2021/10/27 12:43:17;;;;;;;;;;;;;;;15.30;68.13;100866.61;1709891;82;20158;-82
2021/10/27 12:45:49;;;;;;;;;;;;;;;15.49;67.68;100873.38;1706224;82;20272;-83
2021/10/27 12:48:18;;;;;;;;;;;;;;;15.50;67.76;100876.38;1685278;82;21142;-83
2021/10/27 12:51:00;;;;;;;;;;;;;;;15.48;68.17;100874.39;1713708;82;21158;-84
2021/10/27 12:53:33;;;;;;;;;;;;;;;15.48;68.35;100869.07;1708806;82;20169;-83
2021/10/27 12:56:13;;;;;;;;;;;;;;;15.60;68.47;100874.36;1708397;82;20245;-84
2021/10/27 12:58:46;;;;;;;;;;;;;;;15.39;68.13;100881.55;1712492;82;20868;-84
2021/10/27 13:01:22;;;;;;;;;;;;;;;15.41;68.54;100877.73;1709002;82;20169;-83
2021/10/27 13:09:22;;;;;;;;;;;;;;;15.36;68.39;100882.72;1731050;82;20166;-82
2021/10/27 13:22:34;;;;;;;;;;;;;;;15.58;67.39;100848.39;1728801;82;20170;-84
2021/10/27 13:30:31;;;;;;;;;;;;;;;16.10;65.83;100843.86;1729592;82;20234;-84
2021/10/27 13:32:53;;;;;;;;;;;;;;;15.82;66.29;100863.48;1720561;82;20813;-86
2021/10/27 13:35:21;;;;;;;;;;;;;;;15.75;66.34;100881.12;1725104;82;20569;-84
2021/10/27 13:37:47;;;;;;;;;;;;;;;15.96;65.99;100864.59;1725509;82;20246;-82
2021/10/27 13:40:14;;;;;;;;;;;;;;;16.15;65.45;100866.80;1725439;82;20257;-82
2021/10/27 13:42:48;;;;;;;;;;;;;;;16.18;65.44;100878.14;1723265;82;21221;-86
2021/10/27 13:45:25;;;;;;;;;;;;;;;15.98;66.08;100876.72;1724463;82;20258;-84
2021/10/27 13:48:05;;;;;;;;;;;;;;;15.70;66.92;100871.48;1724586;82;20156;-89
2021/10/27 13:59:08;;;;;;;;;;;;;;;15.47;67.63;100880.20;1725689;82;20955;-85
2021/10/27 14:06:51;;;;;;;;;;;;;;;15.44;67.87;100879.20;1729715;82;20159;-84
2021/10/27 14:09:23;;;;;;;;;;;;;;;15.36;68.30;100876.58;1731070;82;20131;-88
2021/10/27 14:20:14;;;;;;;;;;;;;;;15.20;69.04;100871.61;1724433;82;20230;-81
2021/10/27 15:22:03;;;;;;;;;;;;;;;14.92;69.94;100835.24;1709103;81;20185;-82
2021/10/27 15:24:42;;;;;;;;;;;;;;;14.94;69.72;100831.91;1687302;83;20160;-81
2021/10/27 15:32:45;;;;;;;;;;;;;;;15.04;69.73;100834.41;1691222;83;20199;-84
2021/10/27 15:35:29;;;;;;;;;;;;;;;14.94;70.03;100833.23;1715597;83;20141;-82
2021/10/27 15:40:56;;;;;;;;;;;;;;;14.83;70.54;100842.89;1710310;83;20532;-82
2021/10/27 15:51:17;;;;;;;;;;;;;;;15.00;69.81;100840.55;1709210;83;20184;-83
2021/10/27 15:53:43;;;;;;;;;;;;;;;14.94;69.88;100841.21;1717125;82;21060;-79
2021/10/27 15:56:10;;;;;;;;;;;;;;;14.94;70.06;100843.87;1714459;83;21218;-81
2021/10/27 15:58:39;;;;;;;;;;;;;;;14.99;70.08;100833.59;1711996;83;20939;-78
2021/10/27 16:01:08;;;;;;;;;;;;;;;14.98;70.13;100837.74;1708870;82;20287;-80
2021/10/27 16:03:33;;;;;;;;;;;;;;;14.88;70.25;100844.06;1714200;83;20854;-81
2021/10/27 16:06:04;;;;;;;;;;;;;;;14.91;70.18;100845.54;1697663;82;20166;-79
2021/10/27 16:08:30;;;;;;;;;;;;;;;14.78;70.63;100843.91;1728116;82;20234;-82
2021/10/27 16:10:57;;;;;;;;;;;;;;;14.78;70.62;100851.37;1705072;82;20173;-80
2021/10/27 16:13:24;;;;;;;;;;;;;;;14.68;70.95;100855.53;1733851;82;20206;-78
2021/10/27 16:16:00;;;;;;;;;;;;;;;14.67;71.04;100849.88;1737002;82;20210;-82
2021/10/27 16:18:28;;;;;;;;;;;;;;;14.69;70.82;100843.88;1737194;82;20336;-81
2021/10/27 16:20:54;;;;;;;;;;;;;;;14.66;70.89;100854.84;1736386;81;21058;-80
2021/10/27 16:23:21;;;;;;;;;;;;;;;14.66;70.95;100846.87;1735962;82;20182;-81
2021/10/27 16:25:48;;;;;;;;;;;;;;;14.67;70.86;100848.55;1730484;82;20220;-81
2021/10/27 16:28:14;;;;;;;;;;;;;;;14.59;71.11;100845.86;1732561;81;20149;-82
2021/10/27 16:30:41;;;;;;;;;;;;;;;14.56;71.21;100843.53;1733838;82;20297;-84
2021/10/27 16:33:10;;;;;;;;;;;;;;;14.65;71.01;100845.23;1706225;82;20174;-82
2021/10/27 16:35:36;;;;;;;;;;;;;;;14.51;71.33;100853.80;1733348;82;20629;-81
2021/10/27 16:38:05;;;;;;;;;;;;;;;14.35;71.72;100854.11;1704185;82;20579;-81
2021/10/27 16:40:30;;;;;;;;;;;;;;;14.46;71.62;100850.81;1729412;82;20363;-82
2021/10/27 16:42:57;;;;;;;;;;;;;;;14.47;71.66;100855.97;1732603;81;20598;-82
2021/10/27 16:45:23;;;;;;;;;;;;;;;14.44;71.72;100860.79;1732837;82;21088;-81
2021/10/27 16:47:50;;;;;;;;;;;;;;;14.46;71.60;100865.44;1732360;82;20220;-83
2021/10/27 16:50:17;;;;;;;;;;;;;;;14.50;71.58;100864.13;1731026;82;20368;-81
2021/10/27 16:52:43;;;;;;;;;;;;;;;14.58;71.12;100856.66;1729505;82;20202;-83
2021/10/27 16:55:17;;;;;;;;;;;;;;;14.68;70.91;100862.66;1732089;82;20190;-83
2021/10/27 16:57:38;;;;;;;;;;;;;;;14.51;71.46;100868.42;1728660;82;20927;-82
2021/10/27 17:00:07;;;;;;;;;;;;;;;14.66;71.29;100866.81;1729762;81;20178;-80
2021/10/27 17:02:35;;;;;;;;;;;;;;;14.65;70.95;100858.52;1701230;82;20157;-81
2021/10/27 17:05:02;;;;;;;;;;;;;;;14.78;70.72;100859.34;1727676;82;20246;-82